Time;durP1;ratioP1;P1;durP2;ratioP2;P2;SDS_P1;SDS_P2;PMS_P1;PMS_P2;Temp;Humidity;BMP_temperature;BMP_pressure;BME280_temperature;BME280_humidity;BME280_pressure;Samples;Min_cycle;Max_cycle;Signal;HPM_P1;HPM_P2
2021/07/28 00:00:45;;;;;;;9.90;8.90;;;16.10;99.90;;;;;;4957911;29;20500;-73
2021/07/28 00:03:10;;;;;;;16.40;9.77;;;16.10;99.90;;;;;;4940679;29;20027;-72
2021/07/28 00:05:36;;;;;;;18.70;9.32;;;16.10;99.90;;;;;;4940193;29;20030;-71
2021/07/28 00:08:01;;;;;;;11.30;9.35;;;16.10;99.90;;;;;;4957992;29;20154;-71
2021/07/28 00:10:27;;;;;;;14.88;9.02;;;16.10;99.90;;;;;;4957673;29;20034;-71
2021/07/28 00:12:52;;;;;;;15.25;10.35;;;16.00;99.90;;;;;;4957166;29;20365;-72
2021/07/28 00:15:18;;;;;;;12.00;10.13;;;16.00;99.90;;;;;;4940246;29;20027;-71
2021/07/28 00:18:11;;;;;;;13.75;10.00;;;16.00;99.90;;;;;;4957519;28;20101;-72
2021/07/28 00:23:16;;;;;;;12.57;9.60;;;15.90;99.90;;;;;;4956765;29;20031;-72
2021/07/28 00:25:43;;;;;;;12.65;9.00;;;15.90;99.90;;;;;;4956978;29;20078;-71
2021/07/28 00:28:09;;;;;;;12.88;9.25;;;15.80;99.90;;;;;;4957576;29;20055;-71
2021/07/28 00:30:34;;;;;;;13.10;10.43;;;15.80;99.90;;;;;;4957296;29;20105;-71
2021/07/28 00:33:00;;;;;;;12.40;10.00;;;15.70;99.90;;;;;;4957021;29;20023;-71
2021/07/28 00:35:25;;;;;;;16.23;9.55;;;15.70;99.90;;;;;;4957220;29;20051;-71
2021/07/28 00:37:51;;;;;;;14.13;10.30;;;15.70;99.90;;;;;;4940378;29;20038;-72
2021/07/28 00:40:18;;;;;;;11.63;9.18;;;15.70;99.90;;;;;;4956352;29;20027;-71
2021/07/28 00:42:43;;;;;;;14.20;9.20;;;15.60;99.90;;;;;;4957595;29;20118;-72
2021/07/28 00:45:09;;;;;;;11.95;10.68;;;15.60;99.90;;;;;;4957130;28;20110;-72
2021/07/28 00:47:35;;;;;;;11.77;10.55;;;15.60;99.90;;;;;;4939188;29;20094;-71
2021/07/28 00:50:05;;;;;;;10.45;9.35;;;15.60;99.90;;;;;;4957222;28;20028;-72
2021/07/28 00:52:37;;;;;;;11.60;9.30;;;15.60;99.90;;;;;;4956825;29;20389;-72
2021/07/28 00:55:06;;;;;;;11.52;9.75;;;15.50;99.90;;;;;;4957044;29;20026;-71
2021/07/28 00:57:32;;;;;;;11.50;9.65;;;15.50;99.90;;;;;;4956873;29;20436;-72
2021/07/28 00:59:59;;;;;;;11.70;10.50;;;15.50;99.90;;;;;;4939626;29;20043;-72
2021/07/28 01:02:25;;;;;;;12.13;10.25;;;15.40;99.90;;;;;;4938905;29;20031;-71
2021/07/28 01:04:50;;;;;;;16.13;9.18;;;15.40;99.90;;;;;;4957320;29;20031;-72
2021/07/28 01:07:16;;;;;;;10.65;9.18;;;15.40;99.90;;;;;;4956358;29;20050;-71
2021/07/28 01:09:41;;;;;;;10.73;8.88;;;15.40;99.90;;;;;;4939516;29;20047;-72
2021/07/28 01:12:08;;;;;;;12.50;8.80;;;15.30;99.90;;;;;;4957196;29;20480;-72
2021/07/28 01:14:33;;;;;;;14.05;10.05;;;15.30;99.90;;;;;;4955902;29;20024;-79
2021/07/28 01:16:59;;;;;;;15.70;9.82;;;15.30;99.90;;;;;;4956918;29;20053;-70
2021/07/28 01:19:29;;;;;;;16.67;11.25;;;15.30;99.90;;;;;;4956253;29;20483;-71
2021/07/28 01:21:58;;;;;;;16.02;10.77;;;15.20;99.90;;;;;;4956290;29;20043;-71
2021/07/28 01:24:24;;;;;;;11.65;9.95;;;15.20;99.90;;;;;;4939814;29;20079;-72
2021/07/28 01:26:51;;;;;;;15.27;9.80;;;15.20;99.90;;;;;;4956682;29;20023;-72
2021/07/28 01:29:17;;;;;;;11.35;10.25;;;15.20;99.90;;;;;;4938467;29;20023;-71
2021/07/28 01:31:43;;;;;;;12.38;11.00;;;15.20;99.90;;;;;;4956785;29;20531;-73
2021/07/28 01:34:10;;;;;;;17.70;10.20;;;15.20;99.90;;;;;;4956639;29;20415;-71
2021/07/28 01:36:36;;;;;;;13.70;10.20;;;15.20;99.90;;;;;;4938583;29;20028;-72
2021/07/28 01:39:04;;;;;;;10.70;9.60;;;15.10;99.90;;;;;;4956488;29;20490;-72
2021/07/28 01:41:31;;;;;;;11.63;10.23;;;15.10;99.90;;;;;;4939815;29;20704;-71
2021/07/28 01:43:57;;;;;;;14.45;10.40;;;15.10;99.90;;;;;;4944390;29;20039;-72
2021/07/28 01:46:22;;;;;;;11.50;9.98;;;15.00;99.90;;;;;;4942280;29;20023;-71
2021/07/28 01:48:48;;;;;;;14.27;10.85;;;15.00;99.90;;;;;;4955125;29;20035;-71
2021/07/28 01:51:13;;;;;;;11.95;10.77;;;15.00;99.90;;;;;;4937486;29;20019;-71
2021/07/28 01:53:40;;;;;;;11.90;10.70;;;15.00;99.90;;;;;;4956353;29;20038;-71
2021/07/28 01:56:06;;;;;;;13.25;10.80;;;15.00;99.90;;;;;;4955520;28;20507;-71
2021/07/28 01:58:31;;;;;;;17.88;11.50;;;15.00;99.90;;;;;;4955212;29;20054;-71
2021/07/28 02:00:57;;;;;;;14.07;10.43;;;15.00;99.90;;;;;;4935200;29;20126;-83
2021/07/28 02:03:23;;;;;;;15.82;11.07;;;15.00;99.90;;;;;;4935230;29;20026;-71
2021/07/28 02:05:48;;;;;;;12.10;10.75;;;15.00;99.90;;;;;;4934813;29;20031;-75
2021/07/28 02:08:15;;;;;;;19.60;10.98;;;14.90;99.90;;;;;;4936612;29;20098;-77
2021/07/28 02:10:44;;;;;;;12.45;10.20;;;14.90;99.90;;;;;;4935854;29;20023;-71
2021/07/28 02:13:10;;;;;;;11.65;9.85;;;14.90;99.90;;;;;;4936673;29;20412;-72
2021/07/28 02:15:36;;;;;;;13.82;11.10;;;14.90;99.90;;;;;;4936561;29;20051;-71
2021/07/28 02:18:03;;;;;;;20.75;10.93;;;14.90;99.90;;;;;;4934655;29;20110;-71
2021/07/28 02:20:29;;;;;;;12.55;10.23;;;15.00;99.90;;;;;;4936044;29;20409;-71
2021/07/28 02:22:55;;;;;;;16.15;10.63;;;15.10;99.90;;;;;;4936592;29;20058;-71
2021/07/28 02:25:21;;;;;;;13.02;10.77;;;15.20;99.90;;;;;;4935275;29;20024;-79
2021/07/28 02:27:47;;;;;;;14.65;11.20;;;15.30;99.90;;;;;;4936327;29;20035;-71
2021/07/28 02:30:14;;;;;;;14.18;10.25;;;15.40;99.90;;;;;;4935836;29;20098;-71
2021/07/28 02:32:40;;;;;;;10.40;9.40;;;15.50;99.90;;;;;;4935513;29;20123;-71
2021/07/28 02:35:07;;;;;;;12.88;10.65;;;15.60;99.90;;;;;;4936462;29;20532;-70
2021/07/28 02:37:33;;;;;;;11.38;10.23;;;15.50;99.90;;;;;;4936038;29;20054;-71
2021/07/28 02:39:59;;;;;;;15.13;10.85;;;15.50;99.90;;;;;;4935536;29;20083;-73
2021/07/28 02:42:25;;;;;;;12.18;10.68;;;15.50;99.90;;;;;;4936064;29;20036;-71
2021/07/28 02:44:51;;;;;;;12.90;10.18;;;15.50;99.90;;;;;;4936243;29;20028;-74
2021/07/28 02:47:16;;;;;;;15.57;9.10;;;15.50;99.90;;;;;;4935057;29;20098;-72
2021/07/28 02:49:42;;;;;;;13.00;9.55;;;15.50;99.90;;;;;;4936056;29;20099;-72
2021/07/28 02:52:07;;;;;;;13.35;9.73;;;15.40;99.90;;;;;;4936291;29;20028;-71
2021/07/28 02:54:33;;;;;;;16.63;10.55;;;15.40;99.90;;;;;;4935170;29;20128;-71
2021/07/28 02:56:59;;;;;;;12.52;9.00;;;15.40;99.90;;;;;;4936049;29;20042;-77
2021/07/28 02:59:25;;;;;;;12.38;9.63;;;15.40;99.90;;;;;;4942004;29;20086;-72
2021/07/28 03:01:52;;;;;;;12.32;9.98;;;15.50;99.90;;;;;;4954196;29;20079;-72
2021/07/28 03:04:18;;;;;;;15.73;9.88;;;15.60;99.90;;;;;;4937352;29;20129;-71
2021/07/28 03:06:45;;;;;;;14.80;9.45;;;15.70;99.90;;;;;;4954939;28;20069;-72
2021/07/28 03:09:10;;;;;;;10.40;8.82;;;15.80;99.90;;;;;;4954157;29;20027;-71
2021/07/28 03:11:36;;;;;;;13.20;9.48;;;15.90;99.90;;;;;;4955089;29;20035;-71
2021/07/28 03:14:01;;;;;;;12.50;9.52;;;16.00;99.90;;;;;;4954255;29;20565;-71
2021/07/28 03:16:27;;;;;;;15.48;9.82;;;16.10;99.90;;;;;;4937269;29;20520;-71
2021/07/28 03:18:52;;;;;;;19.15;10.13;;;16.10;99.90;;;;;;4954772;29;20098;-71
2021/07/28 03:21:18;;;;;;;14.10;10.15;;;16.20;99.90;;;;;;4936416;29;20091;-71
2021/07/28 03:23:44;;;;;;;15.30;9.88;;;16.20;99.90;;;;;;4954931;29;20019;-71
2021/07/28 03:26:09;;;;;;;16.60;10.02;;;16.20;99.90;;;;;;4955003;29;20043;-70
2021/07/28 03:28:35;;;;;;;10.82;9.52;;;16.30;99.90;;;;;;4936543;29;20055;-71
2021/07/28 03:31:01;;;;;;;12.95;10.15;;;16.30;99.90;;;;;;4954864;29;20039;-71
2021/07/28 03:33:26;;;;;;;12.70;9.85;;;16.30;99.90;;;;;;4954550;29;20094;-70
2021/07/28 03:35:52;;;;;;;18.67;10.80;;;16.30;99.90;;;;;;4953964;29;20033;-71
2021/07/28 03:38:17;;;;;;;13.85;10.75;;;16.30;99.90;;;;;;4954407;29;20019;-71
2021/07/28 03:40:43;;;;;;;12.55;10.52;;;16.40;99.90;;;;;;4937212;29;20130;-71
2021/07/28 03:43:09;;;;;;;12.35;9.63;;;16.40;99.90;;;;;;4936908;29;20058;-73
2021/07/28 03:45:34;;;;;;;17.85;11.43;;;16.40;99.90;;;;;;4954370;29;20019;-72
2021/07/28 03:48:00;;;;;;;19.58;11.15;;;16.50;99.90;;;;;;4954591;29;20031;-71
2021/07/28 03:50:26;;;;;;;15.48;10.90;;;16.50;99.90;;;;;;4936245;29;20023;-70
2021/07/28 03:52:52;;;;;;;13.15;10.32;;;16.50;99.90;;;;;;4954473;29;20365;-70
2021/07/28 03:55:18;;;;;;;13.57;10.32;;;16.50;99.90;;;;;;4954578;29;20023;-71
2021/07/28 03:57:43;;;;;;;12.30;11.00;;;16.50;99.90;;;;;;4954032;29;20567;-72
2021/07/28 04:00:09;;;;;;;14.98;10.23;;;16.50;99.90;;;;;;4954342;29;20130;-71
2021/07/28 04:02:35;;;;;;;12.25;9.75;;;16.50;99.90;;;;;;4954018;29;20391;-76
2021/07/28 04:05:02;;;;;;;12.55;10.23;;;16.50;99.90;;;;;;4953757;29;20023;-76
2021/07/28 04:07:28;;;;;;;13.63;9.55;;;16.40;99.90;;;;;;4954093;29;20142;-74
2021/07/28 04:09:53;;;;;;;18.70;10.32;;;16.40;99.90;;;;;;4937125;29;20113;-71
2021/07/28 04:12:19;;;;;;;14.25;9.85;;;16.50;99.90;;;;;;4953386;29;20054;-72
2021/07/28 04:14:44;;;;;;;13.75;9.05;;;16.60;99.90;;;;;;4953602;28;20503;-71
2021/07/28 04:17:11;;;;;;;15.07;9.07;;;16.60;99.90;;;;;;4953131;28;20127;-72
2021/07/28 04:19:37;;;;;;;11.50;9.55;;;16.60;99.90;;;;;;4947984;28;20027;-73
2021/07/28 04:22:03;;;;;;;12.07;8.55;;;16.70;99.90;;;;;;4965360;28;20038;-71
2021/07/28 04:24:28;;;;;;;17.10;10.02;;;16.70;99.90;;;;;;4956552;29;20043;-70
2021/07/28 04:26:54;;;;;;;11.93;9.63;;;16.80;99.90;;;;;;4957596;29;20388;-70
2021/07/28 04:29:19;;;;;;;13.43;9.52;;;16.80;99.90;;;;;;4957019;29;20027;-73
2021/07/28 04:31:45;;;;;;;10.75;9.57;;;16.80;99.90;;;;;;4957029;29;20101;-75
2021/07/28 04:34:10;;;;;;;18.13;9.60;;;16.90;99.90;;;;;;4944538;28;20596;-72
2021/07/28 04:36:36;;;;;;;16.00;9.65;;;16.90;99.90;;;;;;4966695;28;20019;-77
2021/07/28 04:39:02;;;;;;;10.48;9.20;;;17.00;99.90;;;;;;4956776;29;20027;-71
2021/07/28 04:41:28;;;;;;;12.95;9.48;;;17.00;99.90;;;;;;4956866;29;20043;-71
2021/07/28 04:43:53;;;;;;;10.30;9.20;;;17.00;99.90;;;;;;4955957;29;20022;-71
2021/07/28 04:46:20;;;;;;;17.48;10.27;;;17.00;99.90;;;;;;4959590;28;20026;-70
2021/07/28 04:48:46;;;;;;;13.88;10.25;;;17.00;99.90;;;;;;4957123;29;20047;-71
2021/07/28 04:51:11;;;;;;;10.10;9.10;;;17.10;99.90;;;;;;4954970;29;20034;-81
2021/07/28 04:53:37;;;;;;;11.95;10.05;;;17.10;99.90;;;;;;4955415;29;20027;-71
2021/07/28 04:56:03;;;;;;;11.93;9.70;;;17.10;99.90;;;;;;4964545;28;20038;-71
2021/07/28 04:58:28;;;;;;;10.18;9.02;;;17.10;99.90;;;;;;4960679;28;20027;-70
2021/07/28 05:00:54;;;;;;;11.27;9.10;;;17.20;99.90;;;;;;4955636;29;20047;-71
2021/07/28 05:03:20;;;;;;;14.45;9.80;;;17.20;99.90;;;;;;4939179;29;20031;-72
2021/07/28 05:05:45;;;;;;;14.60;9.75;;;17.20;99.90;;;;;;4957073;29;20034;-71
2021/07/28 05:08:11;;;;;;;13.68;10.18;;;17.30;99.90;;;;;;4955976;29;20058;-71
2021/07/28 05:10:37;;;;;;;13.38;10.27;;;17.30;99.90;;;;;;4956425;29;20034;-73
2021/07/28 05:13:03;;;;;;;13.18;9.45;;;17.30;99.90;;;;;;4957006;29;20483;-74
2021/07/28 05:15:29;;;;;;;13.30;9.75;;;17.30;99.90;;;;;;4956155;29;20027;-71
2021/07/28 05:17:55;;;;;;;12.48;9.57;;;17.40;99.90;;;;;;4957090;29;20383;-71
2021/07/28 05:20:21;;;;;;;13.82;10.02;;;17.40;99.90;;;;;;4956385;29;20027;-75
2021/07/28 05:22:46;;;;;;;13.30;10.13;;;17.40;99.90;;;;;;4956059;29;20071;-73
2021/07/28 05:25:13;;;;;;;12.45;10.18;;;17.40;99.90;;;;;;4956502;29;20027;-73
2021/07/28 05:27:38;;;;;;;14.73;9.25;;;17.40;99.90;;;;;;4958314;28;20102;-78
2021/07/28 05:30:05;;;;;;;14.48;10.60;;;17.50;99.90;;;;;;4956074;28;20452;-70
2021/07/28 05:32:31;;;;;;;17.67;10.18;;;17.50;99.90;;;;;;4956781;28;20488;-70
2021/07/28 05:34:56;;;;;;;14.57;11.90;;;17.50;99.90;;;;;;4953550;29;20031;-81
2021/07/28 05:37:23;;;;;;;11.43;10.32;;;17.50;99.90;;;;;;4954051;29;20073;-71
2021/07/28 05:39:49;;;;;;;16.40;10.90;;;17.60;99.90;;;;;;4959330;28;20035;-73
2021/07/28 05:42:14;;;;;;;14.93;10.73;;;17.60;99.90;;;;;;4955859;28;20097;-79
2021/07/28 05:44:40;;;;;;;13.82;9.35;;;17.60;99.90;;;;;;4955498;29;20043;-71
2021/07/28 05:47:06;;;;;;;13.68;10.90;;;17.70;99.90;;;;;;4940616;28;20028;-71
2021/07/28 05:49:32;;;;;;;12.65;10.30;;;17.80;99.90;;;;;;4947333;29;20059;-72
2021/07/28 05:51:57;;;;;;;15.77;11.00;;;17.80;99.90;;;;;;4954896;29;20437;-71
2021/07/28 05:54:23;;;;;;;13.15;10.45;;;17.90;99.90;;;;;;4954432;29;20065;-71
2021/07/28 05:56:48;;;;;;;15.85;11.02;;;17.90;99.90;;;;;;4958739;28;20033;-70
2021/07/28 05:59:14;;;;;;;11.50;9.80;;;17.90;99.90;;;;;;4955456;29;20043;-70
2021/07/28 06:01:40;;;;;;;14.15;9.48;;;18.00;99.90;;;;;;4956281;28;20118;-74
2021/07/28 06:04:06;;;;;;;18.50;11.02;;;18.00;99.90;;;;;;4935313;29;20026;-70
2021/07/28 06:06:31;;;;;;;13.48;11.25;;;18.00;99.90;;;;;;4953521;29;20542;-70
2021/07/28 06:08:57;;;;;;;16.02;14.40;;;18.00;99.90;;;;;;4955057;29;20019;-71
2021/07/28 06:11:23;;;;;;;13.50;12.07;;;17.90;99.90;;;;;;4954475;29;20035;-75
2021/07/28 06:13:49;;;;;;;14.75;12.18;;;18.10;99.90;;;;;;4955227;29;20057;-70
2021/07/28 06:16:14;;;;;;;13.32;12.02;;;18.20;99.90;;;;;;4954906;29;20035;-77
2021/07/28 06:18:40;;;;;;;15.32;11.60;;;18.30;99.90;;;;;;4964033;28;20062;-76
2021/07/28 06:21:06;;;;;;;13.80;12.15;;;18.30;99.90;;;;;;4942328;29;20131;-76
2021/07/28 06:23:32;;;;;;;13.57;12.02;;;18.30;99.90;;;;;;4954918;29;20098;-75
2021/07/28 06:25:57;;;;;;;12.85;11.57;;;18.30;99.90;;;;;;4938025;28;20129;-73
2021/07/28 06:28:24;;;;;;;13.00;11.80;;;18.30;99.90;;;;;;4966933;28;20019;-80
2021/07/28 06:30:51;;;;;;;13.63;11.73;;;18.40;99.90;;;;;;4936549;29;20031;-77
2021/07/28 06:33:17;;;;;;;14.48;13.05;;;18.50;99.90;;;;;;4938160;29;20027;-75
2021/07/28 06:35:43;;;;;;;14.05;12.75;;;18.50;99.90;;;;;;4955138;29;20472;-76
2021/07/28 06:38:09;;;;;;;15.48;11.93;;;18.60;99.90;;;;;;4937563;29;20037;-76
2021/07/28 06:40:34;;;;;;;16.42;12.35;;;18.60;99.90;;;;;;4937491;29;20028;-80
2021/07/28 06:43:00;;;;;;;15.20;12.20;;;18.60;99.90;;;;;;4938082;29;20035;-77
2021/07/28 06:45:26;;;;;;;15.10;12.68;;;18.80;99.90;;;;;;4937141;29;20353;-76
2021/07/28 06:47:51;;;;;;;13.77;12.27;;;19.00;99.90;;;;;;4954834;29;20551;-79
2021/07/28 06:50:19;;;;;;;14.43;12.68;;;19.10;99.90;;;;;;4969446;28;20031;-83
2021/07/28 06:52:45;;;;;;;15.73;12.20;;;19.20;99.90;;;;;;4974209;28;20030;-76
2021/07/28 06:55:11;;;;;;;13.75;12.45;;;19.30;99.90;;;;;;4974047;28;20031;-76
2021/07/28 06:57:37;;;;;;;14.82;11.93;;;19.50;99.90;;;;;;4974021;28;20030;-81
2021/07/28 07:00:05;;;;;;;14.52;13.02;;;19.50;99.90;;;;;;4956832;28;20110;-85
2021/07/28 07:02:31;;;;;;;13.40;12.00;;;19.50;99.90;;;;;;4936776;29;20440;-85
2021/07/28 07:04:57;;;;;;;20.77;14.50;;;19.40;99.90;;;;;;4938464;29;20024;-85
2021/07/28 07:07:22;;;;;;;18.38;12.95;;;19.30;99.90;;;;;;4921195;29;20090;-85
2021/07/28 07:09:49;;;;;;;13.75;12.27;;;19.20;99.90;;;;;;4943312;28;20062;-72
2021/07/28 07:12:15;;;;;;;15.20;12.68;;;19.20;99.90;;;;;;4966459;28;20368;-83
2021/07/28 07:14:40;;;;;;;14.05;12.75;;;19.30;99.90;;;;;;4956752;28;20147;-74
2021/07/28 07:17:06;;;;;;;13.05;10.85;;;19.50;99.90;;;;;;4938890;29;20404;-81
2021/07/28 07:19:32;;;;;;;15.73;11.00;;;19.80;99.90;;;;;;4955068;29;20446;-85
2021/07/28 07:21:58;;;;;;;12.63;11.27;;;20.00;99.90;;;;;;4955520;29;20043;-72
2021/07/28 07:24:24;;;;;;;12.45;10.55;;;20.20;99.90;;;;;;4949768;28;20078;-77
2021/07/28 07:26:50;;;;;;;12.48;11.23;;;20.40;99.90;;;;;;4971811;28;20538;-75
2021/07/28 07:29:16;;;;;;;11.52;10.38;;;20.40;99.90;;;;;;4972556;28;20031;-77
2021/07/28 07:31:42;;;;;;;11.43;9.48;;;20.20;99.90;;;;;;4973483;28;20050;-78
2021/07/28 07:34:07;;;;;;;14.90;9.77;;;20.10;99.90;;;;;;4955544;28;20105;-78
2021/07/28 07:36:33;;;;;;;17.33;11.02;;;20.00;99.90;;;;;;4973083;28;20070;-76
2021/07/28 07:38:58;;;;;;;16.08;10.75;;;20.10;99.90;;;;;;4973666;28;20038;-75
2021/07/28 07:41:24;;;;;;;11.07;8.88;;;20.20;99.90;;;;;;4970871;28;20062;-72
2021/07/28 07:43:50;;;;;;;18.52;9.38;;;19.90;99.90;;;;;;4973837;28;20034;-72
2021/07/28 07:46:15;;;;;;;9.30;7.68;;;19.70;99.90;;;;;;4950503;29;20029;-73
2021/07/28 07:48:41;;;;;;;10.55;8.25;;;19.60;99.90;;;;;;4952204;28;20087;-74
2021/07/28 07:51:06;;;;;;;11.65;8.48;;;19.60;99.90;;;;;;4950053;28;20496;-74
2021/07/28 07:53:32;;;;;;;10.20;7.50;;;19.50;99.90;;;;;;4956771;28;20031;-78
2021/07/28 07:55:58;;;;;;;8.32;7.40;;;19.50;99.90;;;;;;4959122;28;20391;-77
2021/07/28 07:58:24;;;;;;;12.43;8.07;;;19.60;99.90;;;;;;4959099;28;20023;-77
2021/07/28 08:00:50;;;;;;;8.52;7.10;;;19.70;99.90;;;;;;4959212;28;22002;-73
2021/07/28 08:03:15;;;;;;;8.63;6.80;;;19.70;99.90;;;;;;4940789;29;20118;-74
2021/07/28 08:05:41;;;;;;;7.65;5.95;;;19.80;99.90;;;;;;4948264;28;20084;-74
2021/07/28 08:08:06;;;;;;;8.70;6.28;;;19.90;99.90;;;;;;4973713;28;20031;-75
2021/07/28 08:10:32;;;;;;;8.27;6.18;;;20.20;99.90;;;;;;4948821;28;20026;-78
2021/07/28 08:12:58;;;;;;;7.88;5.93;;;20.50;99.90;;;;;;4956593;28;20085;-79
2021/07/28 08:15:24;;;;;;;9.27;5.65;;;20.70;99.90;;;;;;4968639;28;20023;-78
2021/07/28 08:17:49;;;;;;;6.35;5.70;;;20.70;99.90;;;;;;4948151;29;20035;-81
2021/07/28 08:20:15;;;;;;;10.05;6.32;;;20.60;99.90;;;;;;4953758;29;20494;-77
2021/07/28 08:22:41;;;;;;;10.93;6.30;;;20.50;99.90;;;;;;4938118;29;20068;-73
2021/07/28 08:25:07;;;;;;;9.05;6.07;;;20.50;99.90;;;;;;4949286;28;20023;-88
2021/07/28 08:27:34;;;;;;;6.22;5.10;;;20.60;99.90;;;;;;4973683;28;20031;-84
2021/07/28 08:29:59;;;;;;;7.68;5.50;;;20.70;99.90;;;;;;4954653;28;20441;-75
2021/07/28 08:32:25;;;;;;;10.88;5.28;;;20.60;99.90;;;;;;4953561;28;20031;-73
2021/07/28 08:34:51;;;;;;;7.30;5.72;;;20.40;99.90;;;;;;4954009;29;20058;-74
2021/07/28 08:37:20;;;;;;;6.57;5.00;;;20.20;99.90;;;;;;4936497;29;20150;-75
2021/07/28 08:39:45;;;;;;;6.22;5.25;;;20.00;99.90;;;;;;4936414;29;20022;-80
2021/07/28 08:42:11;;;;;;;10.15;6.45;;;19.90;99.90;;;;;;4935969;29;20042;-73
2021/07/28 08:44:39;;;;;;;7.55;5.03;;;19.90;99.90;;;;;;4937140;29;20722;-74
2021/07/28 08:47:05;;;;;;;8.80;5.82;;;19.90;99.90;;;;;;4937512;28;20023;-77
2021/07/28 08:49:33;;;;;;;7.22;5.40;;;19.80;99.90;;;;;;4955182;28;20134;-79
2021/07/28 08:51:59;;;;;;;6.03;4.53;;;19.80;99.90;;;;;;4972174;28;20240;-75
2021/07/28 08:54:25;;;;;;;9.20;5.20;;;19.80;99.90;;;;;;4969842;28;20038;-75
2021/07/28 08:57:12;;;;;;;6.35;5.00;;;19.70;99.90;;;;;;4956515;28;20026;-85
2021/07/28 08:59:37;;;;;;;7.35;4.85;;;19.90;99.90;;;;;;4948555;29;20050;-84
2021/07/28 09:02:03;;;;;;;6.57;4.22;;;20.00;99.90;;;;;;4936602;29;20035;-77
2021/07/28 09:04:29;;;;;;;6.68;4.10;;;20.30;99.90;;;;;;4953124;28;20038;-78
2021/07/28 09:06:56;;;;;;;6.47;4.10;;;20.70;99.90;;;;;;4935066;29;20023;-75
2021/07/28 09:09:22;;;;;;;9.70;3.83;;;21.00;99.90;;;;;;4963937;28;20065;-73
2021/07/28 09:12:05;;;;;;;5.43;3.53;;;21.00;99.90;;;;;;4970132;28;20443;-75
2021/07/28 09:14:36;;;;;;;6.07;3.90;;;21.00;99.90;;;;;;4955188;28;20031;-75
2021/07/28 09:17:18;;;;;;;7.15;4.10;;;21.10;99.90;;;;;;4952756;29;20633;-75
2021/07/28 09:19:46;;;;;;;4.13;3.50;;;21.10;99.90;;;;;;4936066;29;20043;-74
2021/07/28 09:22:13;;;;;;;4.38;3.63;;;21.00;99.90;;;;;;4970628;28;20042;-76
2021/07/28 09:24:41;;;;;;;8.45;3.90;;;20.90;99.90;;;;;;4972712;28;20027;-74
2021/07/28 09:27:06;;;;;;;7.72;4.25;;;20.90;99.90;;;;;;4971412;28;20070;-76
2021/07/28 09:29:33;;;;;;;4.72;3.60;;;20.80;99.90;;;;;;4953318;28;20043;-74
2021/07/28 09:32:06;;;;;;;7.30;3.80;;;20.70;99.90;;;;;;4973212;28;20035;-78
2021/07/28 09:34:36;;;;;;;6.22;3.65;;;20.60;99.90;;;;;;4939742;29;20031;-76
2021/07/28 09:37:11;;;;;;;6.13;3.35;;;20.80;99.90;;;;;;4935372;29;20495;-80
2021/07/28 09:39:38;;;;;;;5.40;3.80;;;21.10;99.90;;;;;;4935319;29;20050;-73
2021/07/28 09:42:11;;;;;;;5.57;3.25;;;21.10;99.90;;;;;;4954483;28;20046;-79
2021/07/28 09:44:39;;;;;;;4.25;3.05;;;21.10;99.90;;;;;;4972036;28;20026;-81
2021/07/28 09:47:09;;;;;;;5.05;3.05;;;21.00;99.90;;;;;;4954816;28;20376;-76
2021/07/28 09:49:37;;;;;;;3.90;2.88;;;20.80;99.90;;;;;;4953787;28;20407;-75
2021/07/28 09:52:19;;;;;;;2.75;2.45;;;20.70;99.90;;;;;;4954464;28;20113;-74
2021/07/28 09:54:46;;;;;;;8.57;2.95;;;20.70;99.90;;;;;;4970739;28;20109;-74
2021/07/28 09:57:26;;;;;;;7.07;3.10;;;21.00;99.90;;;;;;4954159;28;20127;-74
2021/07/28 10:00:03;;;;;;;4.22;2.70;;;21.30;99.90;;;;;;4940508;29;20055;-75
2021/07/28 10:02:31;;;;;;;6.38;2.90;;;21.60;99.90;;;;;;4935954;29;20039;-77
2021/07/28 10:04:57;;;;;;;5.55;3.35;;;21.70;99.90;;;;;;4952709;29;20027;-75
2021/07/28 10:07:23;;;;;;;5.72;2.88;;;21.90;99.90;;;;;;4952181;29;20086;-77
2021/07/28 10:09:55;;;;;;;5.30;3.33;;;22.10;99.90;;;;;;4954436;28;20035;-75
2021/07/28 10:12:23;;;;;;;8.98;3.05;;;22.30;99.90;;;;;;4916957;29;20019;-81
2021/07/28 10:14:50;;;;;;;4.20;3.15;;;22.30;99.90;;;;;;4955268;28;20027;-77
2021/07/28 10:17:17;;;;;;;4.28;2.60;;;22.60;99.90;;;;;;4938068;28;20027;-74
2021/07/28 10:19:42;;;;;;;5.45;2.72;;;23.00;99.90;;;;;;4938616;29;20026;-74
2021/07/28 10:22:11;;;;;;;4.10;2.60;;;23.40;99.90;;;;;;4962772;28;20042;-78
2021/07/28 10:24:36;;;;;;;4.60;2.42;;;23.70;99.90;;;;;;4974542;28;20023;-78
2021/07/28 10:27:03;;;;;;;5.68;2.72;;;23.80;99.90;;;;;;4956588;28;20506;-76
2021/07/28 10:29:29;;;;;;;5.70;2.65;;;23.80;99.90;;;;;;4957438;28;20049;-77
2021/07/28 10:31:55;;;;;;;3.80;2.20;;;23.80;99.90;;;;;;4957154;28;20035;-79
2021/07/28 10:34:24;;;;;;;4.93;2.92;;;23.70;99.90;;;;;;4974779;28;20026;-75
2021/07/28 10:36:54;;;;;;;5.82;3.03;;;23.50;99.90;;;;;;4957887;28;20034;-74
2021/07/28 10:39:39;;;;;;;4.68;2.75;;;23.30;99.90;;;;;;4956638;28;20037;-77
2021/07/28 10:42:05;;;;;;;3.08;2.20;;;23.20;99.90;;;;;;4974955;28;20521;-78
2021/07/28 10:44:32;;;;;;;3.30;2.33;;;23.30;99.90;;;;;;4973795;28;20031;-77
2021/07/28 10:47:06;;;;;;;6.07;2.58;;;23.60;99.90;;;;;;4974729;28;20030;-79
2021/07/28 10:49:35;;;;;;;2.60;2.25;;;23.90;99.90;;;;;;4974503;28;20093;-75
2021/07/28 10:52:05;;;;;;;3.03;2.33;;;24.00;99.10;;;;;;4957162;28;20106;-76
2021/07/28 10:54:49;;;;;;;3.28;2.30;;;23.90;98.10;;;;;;4957434;28;20027;-81
2021/07/28 10:57:37;;;;;;;4.00;2.25;;;23.50;99.40;;;;;;4957220;28;20379;-86
2021/07/28 11:00:13;;;;;;;5.68;2.90;;;23.00;99.00;;;;;;4974109;28;20042;-83
2021/07/28 11:02:57;;;;;;;5.10;2.72;;;22.50;99.80;;;;;;4957644;28;20038;-76
2021/07/28 11:05:36;;;;;;;5.85;2.72;;;22.20;99.90;;;;;;4956618;28;20038;-76
2021/07/28 11:08:02;;;;;;;4.38;2.40;;;22.10;99.90;;;;;;4974666;28;20038;-74
2021/07/28 11:10:28;;;;;;;5.75;2.75;;;22.10;99.90;;;;;;4957271;28;20027;-81
2021/07/28 11:12:54;;;;;;;5.72;2.58;;;22.30;99.90;;;;;;4957071;28;20035;-82
2021/07/28 11:15:20;;;;;;;6.07;2.53;;;22.70;99.90;;;;;;4957001;28;20041;-76
2021/07/28 11:17:51;;;;;;;4.80;2.35;;;22.80;99.90;;;;;;4957176;28;20023;-78
2021/07/28 11:20:31;;;;;;;3.50;2.40;;;22.90;99.90;;;;;;4973852;28;20031;-76
2021/07/28 11:23:21;;;;;;;4.40;2.40;;;23.30;99.90;;;;;;4974728;28;20097;-75
2021/07/28 11:25:57;;;;;;;4.75;2.05;;;23.80;99.50;;;;;;4957632;28;20034;-82
2021/07/28 11:28:23;;;;;;;6.10;2.78;;;24.00;98.30;;;;;;4974395;28;20023;-76
2021/07/28 11:31:08;;;;;;;5.35;2.53;;;24.10;97.20;;;;;;4978295;28;20030;-77
2021/07/28 11:33:34;;;;;;;6.50;2.30;;;24.00;96.70;;;;;;4960103;28;20027;-78
2021/07/28 11:36:00;;;;;;;4.25;2.20;;;23.60;97.60;;;;;;4961207;28;20027;-81
2021/07/28 11:38:38;;;;;;;4.13;2.30;;;23.30;98.20;;;;;;4977945;28;20034;-76
2021/07/28 11:41:06;;;;;;;6.10;2.10;;;23.20;98.00;;;;;;4960118;28;20061;-75
2021/07/28 11:43:35;;;;;;;5.13;2.42;;;23.20;98.10;;;;;;4960911;28;20423;-81
2021/07/28 11:46:10;;;;;;;5.60;2.42;;;23.10;98.70;;;;;;4960968;28;20057;-89
2021/07/28 11:48:37;;;;;;;6.93;2.60;;;23.10;98.90;;;;;;4977214;28;20034;-75
2021/07/28 11:51:27;;;;;;;3.65;2.10;;;23.20;98.70;;;;;;4977749;28;20487;-80
2021/07/28 11:54:05;;;;;;;4.45;2.60;;;23.60;97.80;;;;;;4960581;28;20042;-81
2021/07/28 11:56:31;;;;;;;3.28;2.13;;;23.90;96.30;;;;;;4959843;28;20069;-76
2021/07/28 11:58:57;;;;;;;5.60;2.72;;;24.00;96.20;;;;;;4977759;28;20428;-80
2021/07/28 12:01:24;;;;;;;5.68;2.28;;;24.20;96.60;;;;;;4976967;28;20126;-74
2021/07/28 12:03:58;;;;;;;3.50;2.13;;;24.20;95.90;;;;;;4977948;28;20476;-78
2021/07/28 12:06:37;;;;;;;5.82;2.40;;;24.10;95.50;;;;;;4977727;28;20075;-75
2021/07/28 12:09:19;;;;;;;3.17;1.90;;;24.30;96.30;;;;;;4977140;28;20027;-86
2021/07/28 12:12:04;;;;;;;5.88;2.28;;;24.50;95.90;;;;;;4978025;28;20022;-77
2021/07/28 12:14:30;;;;;;;3.90;2.58;;;24.80;95.40;;;;;;4977234;28;20041;-74
2021/07/28 12:16:59;;;;;;;4.72;2.30;;;24.90;95.30;;;;;;4977015;28;20038;-81
2021/07/28 12:19:38;;;;;;;4.55;1.92;;;24.90;94.90;;;;;;4960141;28;20067;-80
2021/07/28 12:22:09;;;;;;;4.88;2.30;;;24.80;95.20;;;;;;4956271;28;20089;-75
2021/07/28 12:24:36;;;;;;;;;;;24.70;94.80;;;;;;4960063;28;20376;-83
2021/07/28 12:27:29;;;;;;;4.32;2.60;;;24.60;95.00;;;;;;4977639;28;19906;-85
2021/07/28 12:29:58;;;;;;;3.80;2.10;;;24.40;95.30;;;;;;4976948;28;20041;-79
2021/07/28 12:32:38;;;;;;;6.30;2.20;;;24.20;96.10;;;;;;4959676;28;20027;-74
2021/07/28 12:35:32;;;;;;;6.30;2.00;;;24.30;96.10;;;;;;4977319;28;20047;-86
2021/07/28 12:38:10;;;;;;;4.22;2.13;;;24.60;96.10;;;;;;4959722;28;20022;-76
2021/07/28 12:40:38;;;;;;;4.72;2.22;;;24.90;96.10;;;;;;4976281;28;20034;-79
2021/07/28 12:43:06;;;;;;;2.58;1.88;;;24.90;95.30;;;;;;4977151;28;20078;-76